Terminal Aerodrome Forecast
Issued by NWS

Home | Current Version | Previous Version | Text Only | Print | Product List | Glossary On
Versions: 1 2 3 4 5 6 7 8 9 10 11 12 13 14 15 16 17 18 19 20 21 22 23 24 25 26 27 28 29 30 31 32 33 34
000
FTUS41 KBOX 152158 AAA
TAFHYA
TAF AMD
KHYA 152158Z 1522/1618 00000KT P6SM OVC080
     FM160000 00000KT 2SM -SN OVC040
     FM160100 00000KT 1/2SM SN OVC015
     FM160500 30006KT P6SM OVC015
     FM160700 30010KT P6SM BKN035
     FM160900 29010G22KT P6SM SCT070=

USA.gov is the U.S. government's official web portal to all federal, state and local government web resources and services.